createdAt,value
2022-09-16T00:01:30.522Z,21.92
2022-09-16T00:03:56.830Z,21.92
2022-09-16T00:06:23.853Z,21.92
2022-09-16T00:08:50.285Z,21.91
2022-09-16T00:11:16.919Z,21.91
2022-09-16T00:13:43.235Z,21.92
2022-09-16T00:16:10.759Z,21.90
2022-09-16T00:18:37.136Z,21.90
2022-09-16T00:21:06.328Z,21.90
2022-09-16T00:23:32.681Z,21.89
2022-09-16T00:25:58.986Z,21.87
2022-09-16T00:28:25.312Z,21.89
2022-09-16T00:30:51.637Z,21.88
2022-09-16T00:33:18.023Z,21.89
2022-09-16T00:35:44.375Z,21.87
2022-09-16T00:38:10.706Z,21.85
2022-09-16T00:40:43.181Z,21.87
2022-09-16T00:43:09.917Z,21.84
2022-09-16T00:45:36.225Z,21.87
2022-09-16T00:48:03.383Z,21.83
2022-09-16T00:50:29.617Z,21.83
2022-09-16T00:52:55.959Z,21.84
2022-09-16T00:55:26.433Z,21.83
2022-09-16T00:57:52.853Z,21.82
2022-09-16T01:00:19.161Z,21.82
2022-09-16T01:02:45.484Z,21.82
2022-09-16T01:05:12.571Z,21.81
2022-09-16T01:07:48.542Z,21.83
2022-09-16T01:10:15.363Z,21.83
2022-09-16T01:12:42.545Z,21.83
2022-09-16T01:15:09.053Z,21.81
2022-09-16T01:17:44.334Z,21.81
2022-09-16T01:20:29.398Z,21.81
2022-09-16T01:23:14.275Z,21.80
2022-09-16T01:25:58.650Z,21.81
2022-09-16T01:28:29.822Z,21.80
2022-09-16T01:30:56.202Z,21.81
2022-09-16T01:33:26.011Z,21.77
2022-09-16T01:35:59.269Z,21.78
2022-09-16T01:38:41.734Z,21.78
2022-09-16T01:41:24.262Z,21.77
2022-09-16T01:44:02.850Z,21.78
2022-09-16T01:46:43.273Z,21.78
2022-09-16T01:49:23.751Z,21.75
2022-09-16T01:51:52.329Z,21.78
2022-09-16T01:54:20.855Z,21.75
2022-09-16T01:56:55.508Z,21.76
2022-09-16T01:59:36.613Z,21.74
2022-09-16T02:02:04.631Z,21.72
2022-09-16T02:04:35.294Z,21.75
2022-09-16T02:07:02.019Z,21.74
2022-09-16T02:09:35.674Z,21.75
2022-09-16T02:12:05.401Z,21.74
2022-09-16T02:14:32.217Z,21.74
2022-09-16T02:17:01.918Z,21.75
2022-09-16T02:19:29.705Z,21.75
2022-09-16T02:21:56.021Z,21.72
2022-09-16T02:24:22.356Z,21.73
2022-09-16T02:26:50.036Z,21.74
2022-09-16T02:29:17.613Z,21.71
2022-09-16T02:31:43.930Z,21.72
2022-09-16T02:34:20.061Z,21.70
2022-09-16T02:36:47.448Z,21.71
2022-09-16T02:39:14.677Z,21.71
2022-09-16T02:41:41.019Z,21.70
2022-09-16T02:44:07.619Z,21.71
2022-09-16T02:46:54.149Z,21.72
2022-09-16T02:49:23.935Z,21.72
2022-09-16T02:51:58.394Z,21.71
2022-09-16T02:54:25.764Z,21.70
2022-09-16T02:56:53.404Z,21.70
2022-09-16T02:59:20.222Z,21.71
2022-09-16T03:01:46.822Z,21.70
2022-09-16T03:04:14.249Z,21.70
2022-09-16T03:06:40.556Z,21.68
2022-09-16T03:09:08.126Z,21.67
2022-09-16T03:11:53.447Z,21.68
2022-09-16T03:14:38.646Z,21.69
2022-09-16T03:17:15.651Z,21.69
2022-09-16T03:19:57.223Z,21.66
2022-09-16T03:22:30.421Z,21.68
2022-09-16T03:24:59.225Z,21.69
2022-09-16T03:27:31.793Z,21.66
2022-09-16T03:30:04.918Z,21.66
2022-09-16T03:32:32.449Z,21.67
2022-09-16T03:35:08.434Z,21.66
2022-09-16T03:37:35.499Z,21.67
2022-09-16T03:40:05.953Z,21.64
2022-09-16T03:42:32.336Z,21.64
2022-09-16T03:44:58.633Z,21.66
2022-09-16T03:47:24.954Z,21.64
2022-09-16T03:49:51.511Z,21.65
2022-09-16T03:52:20.695Z,21.65
2022-09-16T03:54:47.011Z,21.63
2022-09-16T03:57:13.403Z,21.62
2022-09-16T03:59:39.736Z,21.61
2022-09-16T04:02:06.072Z,21.60
2022-09-16T04:04:32.420Z,21.61
2022-09-16T04:06:58.734Z,21.59
2022-09-16T04:09:25.071Z,21.60
2022-09-16T04:11:51.430Z,21.61
2022-09-16T04:14:17.766Z,21.60
2022-09-16T04:16:45.361Z,21.59
2022-09-16T04:19:12.881Z,21.59
2022-09-16T04:21:39.542Z,21.58
2022-09-16T04:24:09.470Z,21.59
2022-09-16T04:26:38.515Z,21.58
2022-09-16T04:29:04.831Z,21.56
2022-09-16T04:31:31.133Z,21.55
2022-09-16T04:33:57.459Z,21.56
2022-09-16T04:36:23.778Z,21.57
2022-09-16T04:38:50.146Z,21.56
2022-09-16T04:41:17.814Z,21.55
2022-09-16T04:43:44.143Z,21.54
2022-09-16T04:46:10.855Z,21.52
2022-09-16T04:48:37.285Z,21.56
2022-09-16T04:51:04.268Z,21.54
2022-09-16T04:53:30.681Z,21.54
2022-09-16T04:56:04.037Z,21.58
2022-09-16T04:58:30.369Z,21.59
2022-09-16T05:00:56.698Z,21.59
2022-09-16T05:03:23.051Z,21.32
2022-09-16T05:05:49.404Z,21.46
2022-09-16T05:08:15.718Z,21.55
2022-09-16T05:10:42.025Z,21.59
2022-09-16T05:13:08.391Z,21.60
2022-09-16T05:15:34.744Z,21.60
2022-09-16T05:18:01.106Z,21.61
2022-09-16T05:20:27.409Z,21.61
2022-09-16T05:22:53.754Z,21.54
2022-09-16T05:25:20.108Z,21.52
2022-09-16T05:27:47.104Z,21.56
2022-09-16T05:30:14.977Z,21.54
2022-09-16T05:32:41.308Z,21.57
2022-09-16T05:35:07.817Z,21.60
2022-09-16T05:37:34.133Z,21.59
2022-09-16T05:40:00.482Z,21.58
2022-09-16T05:42:26.823Z,21.59
2022-09-16T05:45:32.590Z,21.55
2022-09-16T05:47:59.103Z,21.59
2022-09-16T05:50:25.407Z,21.57
2022-09-16T05:52:51.724Z,21.58
2022-09-16T05:55:18.035Z,21.58
2022-09-16T05:57:44.354Z,21.59
2022-09-16T06:00:10.933Z,21.53
2022-09-16T06:02:37.543Z,21.53
2022-09-16T06:05:03.896Z,21.54
2022-09-16T06:07:30.212Z,21.58
2022-09-16T06:09:56.535Z,21.58
2022-09-16T06:12:22.846Z,21.58
2022-09-16T06:14:49.154Z,21.57
2022-09-16T06:17:15.471Z,21.58
2022-09-16T06:19:41.821Z,21.56
2022-09-16T06:22:08.149Z,21.55
2022-09-16T06:24:34.467Z,21.55
2022-09-16T06:27:00.785Z,21.54
2022-09-16T06:29:27.099Z,21.55
2022-09-16T06:31:53.424Z,21.56
2022-09-16T06:34:19.754Z,21.48
2022-09-16T06:36:46.129Z,21.49
2022-09-16T06:39:13.204Z,21.54
2022-09-16T06:41:39.673Z,21.40
2022-09-16T06:44:06.109Z,21.27
2022-09-16T06:46:32.457Z,21.41
2022-09-16T06:49:01.561Z,21.29
2022-09-16T06:51:31.633Z,21.44
2022-09-16T06:54:04.874Z,21.52
2022-09-16T06:56:31.218Z,21.57
2022-09-16T06:58:57.521Z,21.60
2022-09-16T07:01:28.134Z,21.61
2022-09-16T07:03:54.854Z,21.65
2022-09-16T07:06:21.734Z,21.65
2022-09-16T07:08:48.046Z,21.69
2022-09-16T07:11:15.083Z,21.70
2022-09-16T07:13:41.565Z,21.71
2022-09-16T07:16:13.191Z,21.70
2022-09-16T07:18:40.193Z,21.73
2022-09-16T07:21:07.565Z,21.76
2022-09-16T07:23:34.497Z,21.73
2022-09-16T07:26:04.303Z,21.81
2022-09-16T07:28:31.250Z,21.92
2022-09-16T07:31:00.421Z,21.95
2022-09-16T07:33:26.803Z,21.97
2022-09-16T07:35:53.125Z,21.96
2022-09-16T07:38:19.429Z,22.09
2022-09-16T07:40:45.796Z,22.31
2022-09-16T07:43:12.119Z,22.44
2022-09-16T07:45:38.596Z,22.51
2022-09-16T07:48:04.961Z,22.51
2022-09-16T07:50:31.329Z,22.49
2022-09-16T07:52:57.649Z,22.48
2022-09-16T07:55:23.962Z,22.50
2022-09-16T07:57:50.286Z,22.51
2022-09-16T08:00:16.601Z,22.60
2022-09-16T08:02:43.049Z,22.46
2022-09-16T08:05:09.947Z,22.29
2022-09-16T08:07:36.569Z,22.32
2022-09-16T08:10:02.890Z,22.25
2022-09-16T08:12:32.397Z,22.66
2022-09-16T08:14:59.422Z,22.98
2022-09-16T08:17:27.127Z,22.47
2022-09-16T08:19:55.331Z,22.33
2022-09-16T08:22:23.451Z,22.82
2022-09-16T08:24:49.757Z,23.18
2022-09-16T08:27:16.075Z,22.98
2022-09-16T08:29:42.373Z,22.50
2022-09-16T08:32:08.733Z,22.36
2022-09-16T08:34:35.124Z,22.33
2022-09-16T08:37:01.457Z,22.36
2022-09-16T08:39:27.756Z,22.42
2022-09-16T08:42:00.300Z,22.38
2022-09-16T08:44:38.944Z,22.69
2022-09-16T08:47:07.441Z,22.88
2022-09-16T08:49:43.984Z,22.93
2022-09-16T08:52:15.259Z,22.90
2022-09-16T08:54:45.344Z,22.91
2022-09-16T08:57:13.303Z,22.94
2022-09-16T08:59:40.935Z,23.00
2022-09-16T09:02:19.881Z,22.99
2022-09-16T09:04:46.719Z,22.93
2022-09-16T09:07:17.767Z,22.88
2022-09-16T09:09:50.099Z,22.76
2022-09-16T09:12:35.907Z,23.04
2022-09-16T09:15:26.123Z,23.62
2022-09-16T09:18:04.321Z,23.83
2022-09-16T09:20:49.594Z,23.97
2022-09-16T09:23:15.831Z,23.97
2022-09-16T09:25:44.412Z,22.98
2022-09-16T09:28:23.265Z,22.66
2022-09-16T09:31:11.108Z,22.46
2022-09-16T09:33:46.558Z,22.88
2022-09-16T09:36:29.271Z,22.97
2022-09-16T09:39:12.724Z,22.79
2022-09-16T09:41:40.013Z,22.52
2022-09-16T09:44:21.908Z,22.86
2022-09-16T09:46:48.533Z,22.99
2022-09-16T09:49:16.376Z,23.06
2022-09-16T09:51:44.263Z,22.98
2022-09-16T09:54:13.536Z,22.56
2022-09-16T09:56:44.396Z,22.94
2022-09-16T09:59:16.573Z,23.04
2022-09-16T10:01:43.643Z,23.09
2022-09-16T10:04:14.434Z,22.82
2022-09-16T10:06:41.887Z,22.86
2022-09-16T10:09:09.025Z,23.08
2022-09-16T10:11:35.343Z,23.19
2022-09-16T10:14:01.840Z,23.07
2022-09-16T10:16:34.914Z,23.20
2022-09-16T10:19:02.304Z,23.04
2022-09-16T10:21:38.684Z,22.93
2022-09-16T10:24:04.998Z,22.77
2022-09-16T10:26:31.329Z,22.73
2022-09-16T10:28:58.914Z,23.10
2022-09-16T10:31:27.254Z,23.20
2022-09-16T10:33:56.798Z,23.22
2022-09-16T10:36:23.451Z,23.17
2022-09-16T10:39:04.474Z,23.20
2022-09-16T10:41:41.829Z,23.22
2022-09-16T10:44:17.315Z,23.19
2022-09-16T10:46:57.532Z,23.25
2022-09-16T10:49:34.938Z,23.17
2022-09-16T10:52:15.549Z,22.84
2022-09-16T10:54:41.864Z,22.87
2022-09-16T10:57:27.610Z,22.90
2022-09-16T10:59:57.615Z,23.21
2022-09-16T11:02:44.154Z,22.95
2022-09-16T11:05:26.264Z,22.77
2022-09-16T11:08:02.848Z,23.06
2022-09-16T11:10:48.740Z,23.26
2022-09-16T11:13:25.313Z,23.31
2022-09-16T11:16:13.751Z,23.34
2022-09-16T11:18:49.415Z,23.05
2022-09-16T11:21:37.908Z,23.12
2022-09-16T11:24:14.101Z,23.34
2022-09-16T11:26:43.512Z,23.37
2022-09-16T11:29:28.594Z,23.39
2022-09-16T11:32:12.306Z,23.10
2022-09-16T11:34:42.950Z,23.19
2022-09-16T11:37:29.872Z,23.19
2022-09-16T11:40:12.767Z,22.90
2022-09-16T11:42:43.041Z,23.19
2022-09-16T11:45:15.417Z,23.32
2022-09-16T11:47:57.705Z,23.05
2022-09-16T11:50:36.327Z,23.08
2022-09-16T11:53:05.066Z,22.73
2022-09-16T11:55:44.090Z,22.94
2022-09-16T11:58:19.568Z,23.20
2022-09-16T12:00:45.888Z,23.18
2022-09-16T12:03:21.499Z,23.27
2022-09-16T12:05:53.415Z,23.29
2022-09-16T12:08:25.388Z,23.31
2022-09-16T12:10:52.794Z,23.37
2022-09-16T12:13:24.775Z,23.37
2022-09-16T12:15:52.752Z,23.36
2022-09-16T12:18:19.894Z,23.35
2022-09-16T12:20:50.669Z,23.39
2022-09-16T12:23:24.146Z,23.36
2022-09-16T12:26:02.656Z,23.37
2022-09-16T12:28:46.079Z,23.24
2022-09-16T12:31:23.883Z,23.12
2022-09-16T12:33:56.083Z,23.29
2022-09-16T12:36:23.965Z,23.36
2022-09-16T12:38:50.476Z,23.39
2022-09-16T12:41:25.306Z,23.31
2022-09-16T12:44:06.387Z,23.24
2022-09-16T12:46:45.613Z,23.25
2022-09-16T12:49:21.136Z,23.39
2022-09-16T12:51:58.594Z,23.48
2022-09-16T12:55:03.948Z,23.27
2022-09-16T12:57:42.547Z,22.73
2022-09-16T13:00:11.031Z,23.07
2022-09-16T13:02:45.867Z,23.20
2022-09-16T13:05:33.555Z,23.18
2022-09-16T13:08:07.427Z,23.11
2022-09-16T13:10:54.925Z,22.99
2022-09-16T13:13:31.762Z,22.69
2022-09-16T13:15:58.732Z,22.63
2022-09-16T13:18:28.916Z,22.65
2022-09-16T13:21:05.342Z,22.67
2022-09-16T13:23:33.962Z,22.65
2022-09-16T13:26:05.204Z,22.57
2022-09-16T13:28:41.656Z,22.52
2022-09-16T13:31:19.850Z,22.61
2022-09-16T13:33:47.012Z,22.62
2022-09-16T13:36:19.158Z,22.63
2022-09-16T13:38:45.482Z,22.62
2022-09-16T13:41:12.220Z,22.55
2022-09-16T13:43:41.570Z,22.87
2022-09-16T13:46:16.743Z,23.05
2022-09-16T13:48:44.599Z,23.15
2022-09-16T13:51:14.731Z,23.17
2022-09-16T13:53:47.929Z,23.15
2022-09-16T13:56:33.127Z,22.91
2022-09-16T13:59:12.292Z,23.01
2022-09-16T14:01:58.433Z,23.02
2022-09-16T14:04:33.091Z,23.11
2022-09-16T14:07:06.303Z,23.02
2022-09-16T14:09:54.824Z,22.92
2022-09-16T14:12:30.879Z,22.88
2022-09-16T14:14:58.144Z,22.92
2022-09-16T14:17:25.628Z,22.89
2022-09-16T14:19:52.637Z,22.85
2022-09-16T14:22:21.615Z,22.79
2022-09-16T14:24:50.376Z,22.72
2022-09-16T14:27:26.922Z,22.68
2022-09-16T14:29:53.845Z,22.64
2022-09-16T14:32:20.176Z,22.61
2022-09-16T14:34:46.599Z,22.56
2022-09-16T14:37:13.331Z,22.55
2022-09-16T14:39:39.637Z,22.54
2022-09-16T14:42:07.169Z,22.52
2022-09-16T14:44:34.609Z,22.53
2022-09-16T14:47:09.451Z,22.54
2022-09-16T14:49:39.308Z,22.54
2022-09-16T14:52:14.059Z,22.57
2022-09-16T14:54:43.430Z,22.54
2022-09-16T14:57:17.378Z,22.63
2022-09-16T14:59:43.942Z,22.93
2022-09-16T15:02:16.206Z,22.95
2022-09-16T15:04:43.837Z,23.02
2022-09-16T15:07:12.611Z,22.98
2022-09-16T15:09:45.268Z,22.89
2022-09-16T15:12:19.545Z,22.78
2022-09-16T15:14:45.938Z,23.16
2022-09-16T15:17:14.932Z,23.30
2022-09-16T15:19:41.265Z,23.30
2022-09-16T15:22:09.001Z,23.32
2022-09-16T15:24:35.882Z,23.27
2022-09-16T15:27:02.226Z,23.21
2022-09-16T15:29:30.357Z,23.05
2022-09-16T15:32:05.991Z,23.11
2022-09-16T15:34:32.731Z,23.20
2022-09-16T15:37:03.074Z,23.29
2022-09-16T15:39:33.209Z,23.26
2022-09-16T15:42:13.174Z,23.21
2022-09-16T15:44:50.057Z,23.29
2022-09-16T15:47:29.447Z,23.15
2022-09-16T15:49:58.567Z,22.77
2022-09-16T15:52:24.875Z,22.84
2022-09-16T15:54:52.924Z,23.03
2022-09-16T15:57:21.519Z,22.94
2022-09-16T15:59:53.924Z,22.99
2022-09-16T16:02:33.832Z,22.97
2022-09-16T16:05:10.757Z,23.10
2022-09-16T16:07:47.113Z,23.11
2022-09-16T16:10:14.923Z,23.09
2022-09-16T16:12:41.585Z,23.10
2022-09-16T16:15:08.548Z,23.13
2022-09-16T16:17:34.859Z,22.89
2022-09-16T16:20:01.174Z,22.66
2022-09-16T16:22:29.009Z,22.88
2022-09-16T16:24:55.423Z,23.13
2022-09-16T16:27:21.752Z,23.20
2022-09-16T16:29:48.061Z,23.15
2022-09-16T16:32:15.123Z,23.02
2022-09-16T16:34:45.119Z,23.04
2022-09-16T16:37:28.076Z,23.12
2022-09-16T16:39:59.344Z,22.62
2022-09-16T16:42:25.749Z,22.44
2022-09-16T16:44:52.061Z,22.25
2022-09-16T16:47:18.369Z,22.18
2022-09-16T16:49:48.273Z,22.16
2022-09-16T16:52:17.198Z,22.13
2022-09-16T16:54:43.703Z,22.07
2022-09-16T16:57:10.302Z,22.16
2022-09-16T16:59:36.638Z,22.12
2022-09-16T17:02:04.174Z,22.03
2022-09-16T17:04:30.599Z,22.05
2022-09-16T17:07:21.446Z,21.78
2022-09-16T17:09:44.161Z,21.70
2022-09-16T17:12:10.617Z,21.71
2022-09-16T17:14:36.937Z,21.95
2022-09-16T17:17:03.244Z,22.28
2022-09-16T17:19:29.587Z,22.32
2022-09-16T17:21:57.650Z,22.18
2022-09-16T17:24:23.999Z,22.13
2022-09-16T17:26:50.318Z,21.90
2022-09-16T17:29:17.029Z,21.85
2022-09-16T17:31:43.618Z,22.06
2022-09-16T17:34:13.298Z,21.88
2022-09-16T17:36:40.219Z,21.87
2022-09-16T17:39:07.304Z,21.81
2022-09-16T17:41:33.618Z,21.78
2022-09-16T17:44:01.923Z,21.67
2022-09-16T17:46:28.618Z,21.77
2022-09-16T17:49:01.527Z,21.83
2022-09-16T17:51:27.848Z,21.84
2022-09-16T17:53:54.187Z,21.84
2022-09-16T17:56:20.499Z,21.89
2022-09-16T17:58:47.067Z,21.92
2022-09-16T18:01:14.193Z,21.93
2022-09-16T18:03:40.925Z,21.92
2022-09-16T18:06:11.108Z,21.93
2022-09-16T18:08:37.448Z,21.92
2022-09-16T18:11:03.845Z,21.93
2022-09-16T18:13:30.167Z,21.93
2022-09-16T18:15:57.160Z,21.90
2022-09-16T18:18:23.495Z,21.80
2022-09-16T18:20:53.403Z,21.83
2022-09-16T18:23:19.750Z,21.85
2022-09-16T18:25:46.083Z,21.79
2022-09-16T18:28:12.419Z,21.69
2022-09-16T18:30:38.757Z,21.75
2022-09-16T18:33:05.108Z,21.81
2022-09-16T18:35:31.727Z,21.82
2022-09-16T18:37:58.066Z,21.82
2022-09-16T18:40:24.450Z,21.75
2022-09-16T18:42:50.799Z,21.75
2022-09-16T18:45:17.616Z,21.75
2022-09-16T18:47:43.962Z,21.72
2022-09-16T18:50:10.276Z,21.75
2022-09-16T18:52:36.610Z,21.75
2022-09-16T18:55:02.963Z,21.76
2022-09-16T18:57:29.377Z,21.70
2022-09-16T18:59:55.690Z,21.75
2022-09-16T19:02:22.106Z,21.75
2022-09-16T19:04:48.497Z,21.74
2022-09-16T19:07:14.898Z,21.73
2022-09-16T19:09:41.221Z,21.77
2022-09-16T19:12:10.960Z,21.72
2022-09-16T19:14:37.407Z,21.69
2022-09-16T19:17:03.790Z,21.67
2022-09-16T19:19:30.152Z,21.70
2022-09-16T19:21:56.567Z,21.74
2022-09-16T19:24:23.345Z,21.66
2022-09-16T19:26:50.290Z,21.68
2022-09-16T19:29:16.614Z,21.75
2022-09-16T19:31:43.598Z,21.74
2022-09-16T19:34:09.946Z,21.75
2022-09-16T19:36:36.278Z,21.80
2022-09-16T19:39:02.755Z,21.84
2022-09-16T19:41:29.667Z,21.82
2022-09-16T19:43:56.944Z,21.82
2022-09-16T19:46:23.860Z,21.82
2022-09-16T19:48:50.227Z,21.81
2022-09-16T19:51:17.199Z,21.80
2022-09-16T19:53:43.634Z,21.80
2022-09-16T19:56:10.645Z,21.79
2022-09-16T19:58:37.176Z,21.79
2022-09-16T20:01:04.918Z,21.80
2022-09-16T20:03:31.738Z,21.78
2022-09-16T20:06:02.080Z,21.79
2022-09-16T20:08:28.401Z,21.78
2022-09-16T20:10:54.732Z,21.78
2022-09-16T20:13:21.119Z,21.77
2022-09-16T20:15:47.421Z,21.74
2022-09-16T20:18:13.765Z,21.75
2022-09-16T20:20:40.070Z,21.75
2022-09-16T20:23:06.554Z,21.77
2022-09-16T20:25:33.194Z,21.75
2022-09-16T20:27:59.526Z,21.74
2022-09-16T20:30:25.851Z,21.73
2022-09-16T20:32:52.183Z,21.73
2022-09-16T20:35:18.557Z,21.70
2022-09-16T20:37:44.879Z,21.73
2022-09-16T20:40:11.272Z,21.73
2022-09-16T20:42:37.629Z,21.71
2022-09-16T20:45:04.324Z,21.71
2022-09-16T20:47:30.654Z,21.71
2022-09-16T20:49:57.098Z,21.70
2022-09-16T20:52:23.427Z,21.70
2022-09-16T20:54:49.743Z,21.69
2022-09-16T20:57:16.773Z,21.67
2022-09-16T20:59:43.089Z,21.69
2022-09-16T21:02:09.436Z,21.68
2022-09-16T21:04:35.790Z,21.67
2022-09-16T21:07:02.099Z,21.65
2022-09-16T21:09:28.406Z,21.65
2022-09-16T21:11:54.711Z,21.66
2022-09-16T21:14:22.583Z,21.63
2022-09-16T21:16:49.352Z,21.62
2022-09-16T21:19:16.535Z,21.63
2022-09-16T21:21:44.249Z,21.64
2022-09-16T21:24:10.673Z,21.62
2022-09-16T21:26:37.314Z,21.63
2022-09-16T21:29:10.850Z,21.60
2022-09-16T21:31:38.064Z,21.61
2022-09-16T21:34:05.070Z,21.60
2022-09-16T21:36:31.381Z,21.62
2022-09-16T21:38:57.799Z,21.59
2022-09-16T21:41:24.370Z,21.58
2022-09-16T21:43:51.519Z,21.59
2022-09-16T21:46:27.919Z,21.59
2022-09-16T21:49:01.982Z,21.59
2022-09-16T21:51:34.776Z,21.58
2022-09-16T21:54:02.338Z,21.58
2022-09-16T21:56:28.655Z,21.57
2022-09-16T21:58:55.447Z,21.57
2022-09-16T22:01:22.447Z,21.58
2022-09-16T22:03:52.852Z,21.56
2022-09-16T22:06:19.245Z,21.54
2022-09-16T22:08:48.875Z,21.54
2022-09-16T22:11:16.075Z,21.55
2022-09-16T22:13:42.634Z,21.54
2022-09-16T22:16:11.926Z,21.54
2022-09-16T22:18:38.295Z,21.51
2022-09-16T22:21:08.037Z,21.54
2022-09-16T22:23:34.615Z,21.52
2022-09-16T22:26:07.452Z,21.52
2022-09-16T22:28:33.773Z,21.53
2022-09-16T22:31:11.354Z,21.51
2022-09-16T22:33:38.210Z,21.48
2022-09-16T22:36:05.005Z,21.51
2022-09-16T22:38:31.426Z,21.50
2022-09-16T22:41:01.378Z,21.50
2022-09-16T22:43:27.916Z,21.49
2022-09-16T22:45:54.310Z,21.49
2022-09-16T22:48:20.622Z,21.49
2022-09-16T22:50:56.291Z,21.49
2022-09-16T22:53:23.014Z,21.48
2022-09-16T22:55:53.691Z,21.48
2022-09-16T22:58:19.994Z,21.48
2022-09-16T23:00:46.332Z,21.47
2022-09-16T23:03:12.659Z,21.47
2022-09-16T23:05:38.993Z,21.47
2022-09-16T23:08:05.387Z,21.48
2022-09-16T23:10:31.722Z,21.46
2022-09-16T23:12:59.510Z,21.46
2022-09-16T23:15:27.019Z,21.46
2022-09-16T23:17:53.331Z,21.44
2022-09-16T23:20:19.660Z,21.34
2022-09-16T23:22:46.006Z,21.47
2022-09-16T23:25:12.418Z,21.58
2022-09-16T23:27:39.390Z,21.64
2022-09-16T23:30:05.943Z,21.66
2022-09-16T23:32:32.245Z,21.66
2022-09-16T23:34:58.570Z,21.66
2022-09-16T23:37:24.886Z,21.66
2022-09-16T23:39:51.243Z,21.68
2022-09-16T23:42:17.935Z,21.68
2022-09-16T23:44:44.261Z,21.66
2022-09-16T23:47:10.590Z,21.69
2022-09-16T23:49:36.913Z,21.70
2022-09-16T23:52:03.227Z,21.69
2022-09-16T23:54:29.545Z,21.69
2022-09-16T23:56:55.858Z,21.72
2022-09-16T23:59:22.174Z,21.71
